메인 페이지
METAR-TAF:

METAR-TAF

공항 :

Naval Air Station JRB Fort Worth (Carswell Field)

포트워스, 텍사스, 미국

위도: 32-45-57N, 경도: 097-26-00W, 고도: 198m

현재 날씨관측

예보는 21분 전, 18:52시(UTC)에 발표되었습니다.
남동5kt
온도 14°C
습도 82%
기압 1019 hPa
시정: 16.1km
고도 1100ft 상공 흐림

METAR: KNFW 051852Z 13005KT 10SM OVC011 14/11 A3009 RMK AO2 CIG 007 N SLP173 T01440111 VISNO N $

시각: 14:13 (19:13 UTC)

예보

예보 대상 시간: 05일 18시부터 06일 15시까지 (UTC)
여러 방향의 바람 4kt
시정 10km 이상
고도 800ft 상공 흐림
전환 중
05일 19시부터 05일 21시까지 (UTC)
여러 방향의 바람 6kt
시정 10km 이상
고도 1000ft 상공 구름 많음
고도 5000ft 상공 흐림
전환 중
06일 03시부터 06일 04시까지 (UTC)
6kt
시정 10km 이상
고도 700ft 상공 흐림
전환 중
06일 06시부터 06일 08시까지 (UTC)
여러 방향의 바람 6kt
시정: 6000m
고도 400ft 상공 흐림
박무
일시적
06일 08시부터 06일 13시까지 (UTC)
시정: 1800m
박무

TAF: KNFW 0518/0615 VRB04KT 9999 OVC008 QNH3008INS BECMG 0519/0521 VRB06KT 9999 BKN010 OVC050 QNH2997INS BECMG 0603/0604 18006KT 9999 OVC007 QNH3000INS BECMG 0606/0608 VRB06KT 6000 BR OVC004 QNH2999INS TEMPO 0608/0613 2400 BR AUTOMATED SENSOR METWATCH 0522 TILL 0611 T12/0518Z T16/0522Z AMD 1800 FN20078

4,000개 이상의 공항 관측 자료 및 예보 (METAR 및 TAF 보고).

지도상에서 검색 가능한 기상관측소가 노란 점과 빨간 점으로 표시되어 있습니다.

기상관측소 명을 보려면 표시 위로 마우스를 이동하세요.

날씨 관측과 예보를 보려면 클릭하세요.

지도 변경 : 확대하려면 엑스 표시가 있는 녹색 버튼, 축소하려면 빼기 표시가 있는 녹색 버튼, 다음 페이지의 지도를 보려면 녹색 화살표를 클릭하세요.


METAR-TAF: